Terminal Aerodrome Forecast
Issued by NWS

Home | Current Version | Previous Version | Text Only | Print | Product List | Glossary On
Versions: 1 2 3 4 5 6 7 8 9 10 11 12 13 14
000
FTUS41 KPHI 061126
TAFPNE
TAF
KPNE 061126Z 0612/0712 14004KT P6SM VCSH SCT050 BKN150
      TEMPO 0612/0613 FEW008
     FM061400 12005KT P6SM VCSH BKN050
     FM061800 13008KT P6SM VCSH BKN050
      TEMPO 0621/0624 3SM TSRA OVC040CB
     FM070200 12006KT P6SM SCT050 BKN150
     FM070700 16005KT 4SM BR BKN008=

USA.gov is the U.S. government's official web portal to all federal, state and local government web resources and services.